Time;durP1;ratioP1;P1;durP2;ratioP2;P2;SDS_P1;SDS_P2;PMS_P1;PMS_P2;Temp;Humidity;BMP_temperature;BMP_pressure;BME280_temperature;BME280_humidity;BME280_pressure;Samples;Min_cycle;Max_cycle;Signal;HPM_P1;HPM_P2
2022/08/14 00:01:02;;;;;;;4.77;2.57;;;;;;;;;;5051645;28;20209;-72
2022/08/14 00:03:37;;;;;;;4.63;3.07;;;;;;;;;;5053830;28;20236;-73
2022/08/14 00:06:07;;;;;;;5.73;2.87;;;;;;;;;;5051225;28;20194;-72
2022/08/14 00:08:50;;;;;;;5.80;2.53;;;;;;;;;;5069802;28;20174;-73
2022/08/14 00:11:18;;;;;;;10.33;3.00;;;;;;;;;;5052191;28;20190;-72
2022/08/14 00:13:47;;;;;;;8.07;2.93;;;;;;;;;;5052006;28;20194;-73
2022/08/14 00:16:18;;;;;;;6.97;2.87;;;;;;;;;;5052196;28;20674;-72
2022/08/14 00:19:05;;;;;;;6.27;3.00;;;;;;;;;;5059485;28;20217;-72
2022/08/14 00:21:50;;;;;;;7.23;3.40;;;;;;;;;;5066876;28;20194;-73
2022/08/14 00:24:17;;;;;;;8.00;2.50;;;;;;;;;;5050762;28;20190;-72
2022/08/14 00:26:57;;;;;;;4.90;2.57;;;;;;;;;;5067850;28;20200;-73
2022/08/14 00:29:41;;;;;;;6.07;2.70;;;;;;;;;;5061016;28;20181;-72
2022/08/14 00:32:08;;;;;;;4.43;2.90;;;;;;;;;;5067463;28;20190;-72
2022/08/14 00:35:00;;;;;;;4.00;2.70;;;;;;;;;;5067514;28;20757;-72
2022/08/14 00:37:27;;;;;;;7.60;3.40;;;;;;;;;;5067934;28;20603;-72
2022/08/14 00:40:13;;;;;;;5.63;2.70;;;;;;;;;;5051008;28;20220;-72
2022/08/14 00:42:58;;;;;;;4.53;2.37;;;;;;;;;;5058654;28;20196;-72
2022/08/14 00:45:26;;;;;;;7.03;3.03;;;;;;;;;;5068136;28;20642;-73
2022/08/14 00:47:57;;;;;;;3.77;2.60;;;;;;;;;;5051643;28;20182;-72
2022/08/14 00:50:27;;;;;;;5.80;2.40;;;;;;;;;;5066731;28;20186;-72
2022/08/14 00:53:12;;;;;;;8.13;2.90;;;;;;;;;;5053420;28;20169;-72
2022/08/14 00:55:40;;;;;;;8.60;2.90;;;;;;;;;;5067847;28;20744;-72
2022/08/14 00:58:29;;;;;;;6.80;2.27;;;;;;;;;;5066158;28;20236;-72
2022/08/14 01:00:59;;;;;;;5.93;2.97;;;;;;;;;;5066825;28;20186;-73
2022/08/14 01:03:30;;;;;;;5.53;2.90;;;;;;;;;;5050538;28;20190;-73
2022/08/14 01:05:57;;;;;;;5.23;2.77;;;;;;;;;;5069064;28;20190;-72
2022/08/14 01:08:26;;;;;;;3.70;2.60;;;;;;;;;;5050586;28;20221;-72
2022/08/14 01:11:16;;;;;;;4.43;2.80;;;;;;;;;;5052942;28;20243;-73
2022/08/14 01:13:45;;;;;;;4.37;2.87;;;;;;;;;;5066490;28;20198;-72
2022/08/14 01:16:32;;;;;;;6.67;2.93;;;;;;;;;;5049643;28;20182;-73
2022/08/14 01:21:46;;;;;;;11.07;3.27;;;;;;;;;;5062308;28;20186;-73
2022/08/14 01:24:20;;;;;;;10.60;3.40;;;;;;;;;;5068332;28;20273;-72
2022/08/14 01:27:04;;;;;;;11.53;3.30;;;;;;;;;;5052521;28;20180;-72
2022/08/14 01:29:36;;;;;;;6.50;2.80;;;;;;;;;;5055321;28;20293;-73
2022/08/14 01:32:23;;;;;;;15.20;3.20;;;;;;;;;;5027148;28;20200;-72
2022/08/14 01:34:53;;;;;;;9.07;3.13;;;;;;;;;;5074681;28;20317;-73
2022/08/14 01:37:43;;;;;;;10.13;3.50;;;;;;;;;;5057334;28;20204;-72
2022/08/14 01:40:12;;;;;;;8.47;3.07;;;;;;;;;;5052190;28;20216;-73
2022/08/14 01:42:45;;;;;;;14.80;3.23;;;;;;;;;;5043701;28;20201;-73
2022/08/14 01:45:13;;;;;;;9.50;3.00;;;;;;;;;;5071450;28;20190;-73
2022/08/14 01:47:57;;;;;;;6.83;3.07;;;;;;;;;;5068442;28;20514;-73
2022/08/14 01:50:29;;;;;;;5.70;2.57;;;;;;;;;;5071278;28;20585;-72
2022/08/14 01:52:59;;;;;;;5.73;2.70;;;;;;;;;;5070906;28;20182;-73
2022/08/14 01:55:30;;;;;;;7.70;2.63;;;;;;;;;;5071431;28;20573;-73
2022/08/14 01:58:15;;;;;;;5.20;2.37;;;;;;;;;;5063174;28;20314;-73
2022/08/14 02:00:53;;;;;;;5.60;2.77;;;;;;;;;;5069920;28;20190;-72
2022/08/14 02:03:24;;;;;;;12.17;3.03;;;;;;;;;;5071214;28;20204;-72
2022/08/14 02:05:59;;;;;;;6.20;3.10;;;;;;;;;;5070750;28;20197;-73
2022/08/14 02:08:44;;;;;;;8.13;3.30;;;;;;;;;;5069742;28;20174;-73
2022/08/14 02:11:21;;;;;;;7.60;3.33;;;;;;;;;;5070148;28;20588;-73
2022/08/14 02:13:59;;;;;;;7.37;3.37;;;;;;;;;;5052210;28;20182;-73
2022/08/14 02:16:39;;;;;;;7.53;3.70;;;;;;;;;;5055333;28;20681;-73
2022/08/14 02:19:12;;;;;;;5.50;3.03;;;;;;;;;;5070551;28;20244;-73
2022/08/14 02:21:39;;;;;;;8.40;3.20;;;;;;;;;;5052838;28;20199;-72
2022/08/14 02:24:14;;;;;;;4.47;3.20;;;;;;;;;;5053681;28;20296;-73
2022/08/14 02:27:01;;;;;;;5.97;2.80;;;;;;;;;;5048635;28;20194;-73
2022/08/14 02:29:49;;;;;;;5.67;3.50;;;;;;;;;;5068811;28;20202;-72
2022/08/14 02:32:28;;;;;;;6.73;3.10;;;;;;;;;;5074828;28;20526;-73
2022/08/14 02:35:17;;;;;;;6.57;3.70;;;;;;;;;;5067329;28;20229;-72
2022/08/14 02:37:47;;;;;;;7.63;3.60;;;;;;;;;;5069051;28;20568;-72
2022/08/14 02:40:18;;;;;;;8.73;3.13;;;;;;;;;;5050200;28;20190;-72
2022/08/14 02:42:45;;;;;;;8.10;3.80;;;;;;;;;;5053230;28;20232;-72
2022/08/14 02:45:20;;;;;;;6.70;3.87;;;;;;;;;;5053684;28;20195;-72
2022/08/14 02:47:48;;;;;;;6.30;3.67;;;;;;;;;;5069195;28;20186;-73
2022/08/14 02:50:22;;;;;;;6.43;2.90;;;;;;;;;;5069948;28;20282;-72
2022/08/14 02:52:53;;;;;;;7.17;3.83;;;;;;;;;;5053135;28;20218;-73
2022/08/14 02:55:29;;;;;;;8.13;3.20;;;;;;;;;;5070009;28;20196;-73
2022/08/14 02:57:56;;;;;;;8.23;3.70;;;;;;;;;;5068684;28;20233;-73
2022/08/14 03:00:33;;;;;;;7.13;3.30;;;;;;;;;;5054031;28;20193;-72
2022/08/14 03:03:05;;;;;;;8.93;4.00;;;;;;;;;;5064245;28;20267;-72
2022/08/14 03:05:34;;;;;;;12.33;3.47;;;;;;;;;;5071083;28;20670;-73
2022/08/14 03:08:08;;;;;;;7.60;3.63;;;;;;;;;;5070097;28;20190;-73
2022/08/14 03:10:37;;;;;;;5.70;3.30;;;;;;;;;;5067726;28;20200;-72
2022/08/14 03:13:21;;;;;;;5.13;3.00;;;;;;;;;;5055092;28;20189;-73
2022/08/14 03:15:52;;;;;;;8.90;3.47;;;;;;;;;;5041249;28;20244;-73
2022/08/14 03:18:22;;;;;;;5.23;3.40;;;;;;;;;;5070221;28;20766;-74
2022/08/14 03:20:59;;;;;;;8.60;3.67;;;;;;;;;;5069532;28;20190;-74
2022/08/14 03:23:26;;;;;;;7.43;4.03;;;;;;;;;;5034189;28;20277;-74
2022/08/14 03:25:54;;;;;;;5.77;3.10;;;;;;;;;;5052862;28;20195;-73
2022/08/14 03:28:23;;;;;;;5.23;3.03;;;;;;;;;;5069867;28;20193;-73
2022/08/14 03:31:07;;;;;;;5.37;3.20;;;;;;;;;;5070865;28;20170;-74
2022/08/14 03:33:41;;;;;;;6.03;3.17;;;;;;;;;;5051437;28;20190;-73
2022/08/14 03:36:14;;;;;;;6.00;3.80;;;;;;;;;;5048593;28;20241;-73
2022/08/14 03:39:02;;;;;;;6.00;3.60;;;;;;;;;;5038030;28;21030;-73
2022/08/14 03:41:50;;;;;;;10.13;3.70;;;;;;;;;;5049440;28;20232;-73
2022/08/14 03:44:18;;;;;;;5.63;3.70;;;;;;;;;;5049236;28;20205;-74
2022/08/14 03:47:05;;;;;;;7.37;3.77;;;;;;;;;;5048426;28;20190;-74
2022/08/14 03:49:33;;;;;;;10.00;3.80;;;;;;;;;;5049717;28;20198;-74
2022/08/14 03:52:18;;;;;;;7.53;3.73;;;;;;;;;;5048313;28;20658;-74
2022/08/14 03:55:10;;;;;;;7.37;3.30;;;;;;;;;;5048278;28;20194;-73
2022/08/14 03:57:38;;;;;;;9.10;3.20;;;;;;;;;;5047921;28;20202;-72
2022/08/14 04:00:09;;;;;;;5.27;3.20;;;;;;;;;;5048492;28;20241;-74
2022/08/14 04:02:56;;;;;;;8.33;3.30;;;;;;;;;;5048215;28;20277;-73
2022/08/14 04:05:41;;;;;;;8.17;4.37;;;;;;;;;;5034814;28;20179;-74
2022/08/14 04:08:15;;;;;;;6.53;3.97;;;;;;;;;;5049035;28;20916;-75
2022/08/14 04:10:56;;;;;;;6.80;3.70;;;;;;;;;;5043456;28;20190;-74
2022/08/14 04:13:23;;;;;;;6.10;3.70;;;;;;;;;;5049876;28;20252;-74
2022/08/14 04:16:09;;;;;;;7.00;3.90;;;;;;;;;;5047100;28;20170;-73
2022/08/14 04:18:40;;;;;;;7.97;3.77;;;;;;;;;;5047762;28;20215;-74
2022/08/14 04:21:09;;;;;;;6.10;3.60;;;;;;;;;;5049586;28;20197;-74
2022/08/14 04:23:36;;;;;;;5.67;3.50;;;;;;;;;;5048117;28;20190;-74
2022/08/14 04:26:07;;;;;;;6.90;3.90;;;;;;;;;;5050015;28;20224;-73
2022/08/14 04:28:51;;;;;;;9.17;4.07;;;;;;;;;;5048540;28;20183;-74
2022/08/14 04:31:38;;;;;;;5.70;3.77;;;;;;;;;;5049087;28;20183;-74
2022/08/14 04:34:22;;;;;;;7.60;4.10;;;;;;;;;;5033154;28;20193;-74
2022/08/14 04:45:40;;;;;;;7.33;3.70;;;;;;;;;;5045005;28;20269;-75
2022/08/14 04:48:11;;;;;;;8.23;3.67;;;;;;;;;;5045931;28;20182;-72
2022/08/14 04:50:56;;;;;;;6.23;4.70;;;;;;;;;;5048031;28;20178;-70
2022/08/14 04:53:25;;;;;;;10.80;4.50;;;;;;;;;;5049056;28;20183;-68
2022/08/14 04:56:13;;;;;;;7.20;4.30;;;;;;;;;;5048026;28;20177;-73
2022/08/14 04:59:04;;;;;;;8.97;4.63;;;;;;;;;;5047576;28;20210;-75
2022/08/14 05:01:48;;;;;;;9.63;4.43;;;;;;;;;;5048800;28;20512;-71
2022/08/14 05:04:23;;;;;;;10.63;5.23;;;;;;;;;;5048423;28;20191;-72
2022/08/14 05:07:08;;;;;;;9.63;4.87;;;;;;;;;;5019348;28;20262;-69
2022/08/14 05:09:34;;;;;;;8.67;5.07;;;;;;;;;;5046956;28;20198;-70
2022/08/14 05:12:09;;;;;;;6.57;4.43;;;;;;;;;;5044482;28;20194;-71
2022/08/14 05:14:56;;;;;;;10.63;5.20;;;;;;;;;;5047198;28;20620;-71
2022/08/14 05:17:25;;;;;;;13.37;4.57;;;;;;;;;;5047362;28;20554;-72
2022/08/14 05:19:57;;;;;;;9.40;4.20;;;;;;;;;;5049783;28;20638;-70
2022/08/14 05:22:44;;;;;;;9.33;4.70;;;;;;;;;;5048674;28;20225;-72
2022/08/14 05:25:11;;;;;;;6.97;4.10;;;;;;;;;;5034314;28;20240;-73
2022/08/14 05:27:41;;;;;;;7.57;4.43;;;;;;;;;;5048965;28;20674;-72
2022/08/14 05:30:08;;;;;;;9.80;4.40;;;;;;;;;;5048729;28;20541;-71
2022/08/14 05:32:35;;;;;;;9.00;4.50;;;;;;;;;;5048298;28;20206;-72
2022/08/14 05:35:02;;;;;;;8.23;4.60;;;;;;;;;;5046734;28;20227;-73
2022/08/14 05:37:29;;;;;;;8.13;4.40;;;;;;;;;;5047165;28;20244;-70
2022/08/14 05:39:57;;;;;;;9.40;4.40;;;;;;;;;;5048236;28;20218;-71
2022/08/14 05:42:24;;;;;;;9.57;4.57;;;;;;;;;;5048792;28;20191;-71
2022/08/14 05:44:58;;;;;;;9.60;4.17;;;;;;;;;;5048349;28;20190;-71
2022/08/14 05:47:42;;;;;;;8.87;4.30;;;;;;;;;;5047255;28;20201;-74
2022/08/14 05:50:10;;;;;;;5.77;3.70;;;;;;;;;;5047370;28;20281;-72
2022/08/14 05:52:45;;;;;;;9.87;4.10;;;;;;;;;;5030618;28;20186;-72
2022/08/14 05:55:12;;;;;;;8.73;4.63;;;;;;;;;;5047460;28;20198;-73
2022/08/14 05:57:57;;;;;;;6.40;4.47;;;;;;;;;;5048310;28;20266;-71
2022/08/14 06:00:26;;;;;;;7.73;4.00;;;;;;;;;;5047314;28;20197;-72
2022/08/14 06:02:57;;;;;;;6.30;3.70;;;;;;;;;;5046966;28;20198;-72
2022/08/14 06:05:25;;;;;;;6.17;3.63;;;;;;;;;;5048413;28;20195;-71
2022/08/14 06:07:55;;;;;;;11.47;3.57;;;;;;;;;;5048215;28;20968;-73
2022/08/14 06:10:40;;;;;;;7.63;3.47;;;;;;;;;;5047120;28;20209;-73
2022/08/14 06:13:08;;;;;;;6.97;3.73;;;;;;;;;;5047233;28;20182;-70
2022/08/14 06:15:37;;;;;;;6.87;3.60;;;;;;;;;;5046618;28;20710;-72
2022/08/14 06:18:05;;;;;;;6.00;3.93;;;;;;;;;;5045566;28;20187;-71
2022/08/14 06:20:32;;;;;;;8.27;3.50;;;;;;;;;;5048514;28;20194;-74
2022/08/14 06:23:17;;;;;;;6.23;3.50;;;;;;;;;;5038419;28;20669;-77
2022/08/14 06:25:45;;;;;;;7.93;3.47;;;;;;;;;;5052039;28;20189;-74
2022/08/14 06:28:29;;;;;;;9.80;3.67;;;;;;;;;;5036399;28;20179;-71
2022/08/14 06:30:56;;;;;;;5.87;3.20;;;;;;;;;;5051851;28;20209;-71
2022/08/14 06:33:40;;;;;;;6.03;3.40;;;;;;;;;;5050286;28;20182;-70
2022/08/14 06:36:27;;;;;;;9.43;3.43;;;;;;;;;;5068491;28;20233;-73
2022/08/14 06:39:11;;;;;;;7.07;3.20;;;;;;;;;;5053578;28;20205;-72
2022/08/14 06:41:42;;;;;;;4.80;3.07;;;;;;;;;;5037207;28;20198;-72
2022/08/14 06:44:27;;;;;;;5.87;3.40;;;;;;;;;;5056357;28;20260;-72
2022/08/14 06:46:58;;;;;;;8.40;3.40;;;;;;;;;;5053097;28;20218;-74
2022/08/14 06:49:26;;;;;;;6.53;2.90;;;;;;;;;;5050346;28;20190;-73
2022/08/14 06:51:55;;;;;;;7.17;3.07;;;;;;;;;;5053508;28;20220;-73
2022/08/14 06:54:24;;;;;;;5.47;2.90;;;;;;;;;;5053620;28;20190;-75
2022/08/14 06:56:57;;;;;;;5.70;3.20;;;;;;;;;;5054469;28;20220;-74
2022/08/14 06:59:24;;;;;;;3.90;2.77;;;;;;;;;;5071093;28;20385;-61
2022/08/14 07:07:48;;;;;;;4.23;2.43;;;;;;;;;;5008185;28;20613;-60
2022/08/14 07:10:16;;;;;;;3.43;2.47;;;;;;;;;;5054661;28;20190;-73
2022/08/14 07:12:44;;;;;;;5.80;2.80;;;;;;;;;;5070757;28;20251;-76
2022/08/14 07:15:27;;;;;;;4.40;2.30;;;;;;;;;;5056227;28;20680;-77
2022/08/14 07:17:54;;;;;;;7.27;2.53;;;;;;;;;;5069587;28;20297;-77
2022/08/14 07:20:22;;;;;;;5.13;2.23;;;;;;;;;;5071330;28;20217;-77
2022/08/14 07:22:59;;;;;;;8.10;2.33;;;;;;;;;;5053224;28;20186;-77
2022/08/14 07:25:34;;;;;;;4.73;2.33;;;;;;;;;;5071379;28;20194;-77
2022/08/14 07:28:09;;;;;;;3.83;2.30;;;;;;;;;;5053489;28;20279;-77
2022/08/14 07:30:57;;;;;;;3.70;2.20;;;;;;;;;;5042261;28;20185;-78
2022/08/14 07:33:33;;;;;;;5.10;2.70;;;;;;;;;;5052256;28;20222;-78
2022/08/14 07:36:01;;;;;;;6.67;2.53;;;;;;;;;;5050131;28;20575;-78
2022/08/14 07:38:28;;;;;;;4.87;2.20;;;;;;;;;;5050851;28;20201;-78
2022/08/14 07:41:04;;;;;;;6.57;2.57;;;;;;;;;;5039027;28;20261;-78
2022/08/14 07:43:40;;;;;;;4.20;2.23;;;;;;;;;;5042320;28;20218;-78
2022/08/14 07:46:07;;;;;;;6.10;2.40;;;;;;;;;;5051677;28;20712;-77
2022/08/14 07:48:51;;;;;;;4.87;2.57;;;;;;;;;;5048621;28;20182;-78
2022/08/14 07:51:18;;;;;;;3.90;2.50;;;;;;;;;;5048661;28;20198;-77
2022/08/14 07:53:48;;;;;;;3.80;2.50;;;;;;;;;;5050362;28;20254;-77
2022/08/14 07:56:23;;;;;;;5.20;2.27;;;;;;;;;;5049531;28;20213;-77
2022/08/14 07:59:07;;;;;;;5.60;2.20;;;;;;;;;;5050749;28;20199;-78
2022/08/14 08:01:34;;;;;;;5.53;2.63;;;;;;;;;;5049349;28;20205;-78
2022/08/14 08:04:02;;;;;;;5.47;2.40;;;;;;;;;;5049518;28;20198;-78
2022/08/14 08:06:29;;;;;;;5.00;2.07;;;;;;;;;;5048101;28;20221;-78
2022/08/14 08:08:57;;;;;;;6.07;2.43;;;;;;;;;;5051913;28;20201;-78
2022/08/14 08:11:29;;;;;;;4.07;2.30;;;;;;;;;;5033436;28;20196;-78
2022/08/14 08:14:05;;;;;;;5.63;1.93;;;;;;;;;;5049153;28;20236;-77
2022/08/14 08:16:50;;;;;;;4.03;2.20;;;;;;;;;;5036197;28;20186;-77
2022/08/14 11:11:24;;;;;;;2.90;1.93;;;;;;;;;;5066112;28;20267;-66
2022/08/14 11:13:56;;;;;;;2.90;2.17;;;;;;;;;;5069847;28;20188;-66
2022/08/14 11:16:23;;;;;;;2.83;2.20;;;;;;;;;;5069476;28;20224;-66
2022/08/14 11:18:54;;;;;;;5.50;2.10;;;;;;;;;;5051980;28;20197;-66
2022/08/14 11:21:25;;;;;;;8.70;2.43;;;;;;;;;;5049203;28;20227;-66
2022/08/14 11:23:56;;;;;;;5.73;2.30;;;;;;;;;;5051438;28;21008;-67
2022/08/14 11:26:24;;;;;;;5.93;2.50;;;;;;;;;;5046521;28;20272;-66
2022/08/14 11:28:52;;;;;;;5.67;2.57;;;;;;;;;;5052449;28;20190;-67
2022/08/14 11:31:22;;;;;;;3.33;2.23;;;;;;;;;;5052719;28;20193;-66
2022/08/14 11:34:04;;;;;;;2.27;2.07;;;;;;;;;;5068905;28;20189;-66
2022/08/14 11:36:36;;;;;;;4.70;2.30;;;;;;;;;;5070221;28;20251;-66
2022/08/14 11:39:23;;;;;;;3.97;2.33;;;;;;;;;;5068725;28;20216;-65
2022/08/14 11:42:03;;;;;;;12.30;2.70;;;;;;;;;;5068596;28;20189;-65
2022/08/14 11:44:51;;;;;;;2.50;2.30;;;;;;;;;;5055015;28;20287;-65
2022/08/14 11:47:22;;;;;;;4.10;2.40;;;;;;;;;;5066081;28;20201;-65
2022/08/14 11:49:48;;;;;;;4.77;2.40;;;;;;;;;;5069516;28;20228;-66
2022/08/14 11:52:18;;;;;;;5.87;4.63;;;;;;;;;;5069302;28;20201;-66
2022/08/14 11:54:59;;;;;;;5.27;2.40;;;;;;;;;;5068508;28;20274;-65
2022/08/14 11:57:26;;;;;;;4.70;2.60;;;;;;;;;;5069718;28;20223;-64
2022/08/14 11:59:59;;;;;;;5.60;2.70;;;;;;;;;;5051724;28;20222;-65
2022/08/14 12:02:48;;;;;;;4.17;2.70;;;;;;;;;;5062151;28;20234;-65
2022/08/14 12:05:38;;;;;;;7.20;2.93;;;;;;;;;;5059243;28;20191;-66
2022/08/14 12:08:23;;;;;;;6.37;3.07;;;;;;;;;;5047189;28;20184;-65
2022/08/14 12:10:55;;;;;;;4.87;2.70;;;;;;;;;;5047183;28;20290;-65
2022/08/14 12:13:41;;;;;;;5.77;2.93;;;;;;;;;;5049415;28;20178;-65
2022/08/14 12:16:21;;;;;;;5.00;2.67;;;;;;;;;;5048855;28;20359;-65
2022/08/14 12:18:49;;;;;;;6.97;3.30;;;;;;;;;;5049132;28;20201;-65
2022/08/14 12:21:20;;;;;;;10.20;3.00;;;;;;;;;;5043865;28;20839;-65
2022/08/14 12:24:00;;;;;;;5.53;2.97;;;;;;;;;;5039426;28;20244;-66
2022/08/14 12:26:27;;;;;;;7.60;3.60;;;;;;;;;;5049057;28;20558;-64
2022/08/14 12:29:11;;;;;;;6.30;3.10;;;;;;;;;;5055538;28;20277;-65
2022/08/14 12:31:59;;;;;;;6.57;3.20;;;;;;;;;;5048832;28;20272;-65
2022/08/14 12:34:30;;;;;;;8.40;2.80;;;;;;;;;;5048695;28;20217;-65
2022/08/14 12:37:04;;;;;;;4.60;2.87;;;;;;;;;;5048690;28;20186;-65
2022/08/14 12:39:32;;;;;;;8.73;3.60;;;;;;;;;;5049483;28;20616;-65
2022/08/14 12:42:06;;;;;;;5.30;3.10;;;;;;;;;;5048028;28;20201;-65
2022/08/14 12:44:34;;;;;;;5.20;3.50;;;;;;;;;;5020828;28;20205;-61
2022/08/14 12:47:01;;;;;;;8.23;3.40;;;;;;;;;;5048992;28;20225;-62
2022/08/14 12:49:32;;;;;;;6.87;3.50;;;;;;;;;;5051900;28;20228;-61
2022/08/14 12:52:00;;;;;;;8.60;3.40;;;;;;;;;;5047431;28;20709;-61
2022/08/14 12:54:28;;;;;;;6.30;3.00;;;;;;;;;;5052774;28;20221;-62
2022/08/14 12:57:04;;;;;;;6.87;3.30;;;;;;;;;;5050497;28;20291;-62
2022/08/14 12:59:32;;;;;;;5.97;3.20;;;;;;;;;;5049814;28;20215;-62
2022/08/14 13:02:02;;;;;;;4.87;3.23;;;;;;;;;;5043062;28;20631;-62
2022/08/14 13:04:38;;;;;;;4.83;3.07;;;;;;;;;;5039961;28;20205;-67
2022/08/14 13:07:08;;;;;;;5.47;3.20;;;;;;;;;;5042003;28;20276;-66
2022/08/14 13:09:35;;;;;;;5.00;3.63;;;;;;;;;;5046273;28;20195;-65
2022/08/14 13:12:06;;;;;;;7.63;3.80;;;;;;;;;;5047996;28;20201;-67
2022/08/14 13:14:58;;;;;;;7.50;3.80;;;;;;;;;;5046451;28;20653;-62
2022/08/14 13:17:25;;;;;;;5.47;3.73;;;;;;;;;;5047854;28;20558;-64
2022/08/14 13:19:55;;;;;;;5.13;3.50;;;;;;;;;;5047896;28;20284;-63
2022/08/14 13:22:29;;;;;;;5.30;3.40;;;;;;;;;;5023636;28;20197;-63
2022/08/14 13:25:14;;;;;;;7.20;3.20;;;;;;;;;;5031491;28;20247;-64
2022/08/14 13:27:45;;;;;;;8.37;3.40;;;;;;;;;;5048341;28;21012;-64
2022/08/14 13:30:12;;;;;;;4.73;3.80;;;;;;;;;;5046945;28;20200;-68
2022/08/14 13:32:49;;;;;;;6.10;3.97;;;;;;;;;;5055361;28;20531;-71
2022/08/14 13:35:16;;;;;;;7.33;3.77;;;;;;;;;;5048217;28;20195;-68
2022/08/14 13:37:44;;;;;;;5.70;3.50;;;;;;;;;;5050703;28;20193;-70
2022/08/14 13:40:13;;;;;;;7.30;4.50;;;;;;;;;;5047138;28;20212;-67
2022/08/14 13:42:43;;;;;;;6.57;4.30;;;;;;;;;;5052581;28;20194;-66
2022/08/14 13:45:13;;;;;;;6.40;4.33;;;;;;;;;;5052114;28;20202;-69
2022/08/14 13:47:42;;;;;;;7.80;3.80;;;;;;;;;;5051937;28;20598;-67
2022/08/14 13:50:14;;;;;;;8.00;4.10;;;;;;;;;;5045013;28;20265;-58
2022/08/14 13:52:49;;;;;;;8.07;4.20;;;;;;;;;;5039011;28;20249;-69
2022/08/14 13:55:25;;;;;;;7.20;3.73;;;;;;;;;;5050666;28;20317;-69
2022/08/14 13:57:55;;;;;;;5.80;4.33;;;;;;;;;;5034558;28;20876;-69
2022/08/14 14:00:31;;;;;;;7.33;4.40;;;;;;;;;;5052181;28;20257;-70
2022/08/14 14:03:01;;;;;;;7.23;4.40;;;;;;;;;;5059753;28;20234;-71
2022/08/14 14:05:28;;;;;;;10.00;4.57;;;;;;;;;;5033977;28;20200;-70
2022/08/14 14:08:15;;;;;;;4.67;3.90;;;;;;;;;;5052477;28;20194;-72
2022/08/14 14:11:02;;;;;;;6.93;4.07;;;;;;;;;;5050310;28;20241;-73
2022/08/14 14:13:30;;;;;;;8.70;4.20;;;;;;;;;;5066954;28;20290;-71
2022/08/14 14:15:59;;;;;;;4.27;3.87;;;;;;;;;;5050895;28;20196;-74
2022/08/14 14:18:26;;;;;;;8.17;3.93;;;;;;;;;;5034450;28;20225;-72
2022/08/14 14:21:01;;;;;;;4.50;3.67;;;;;;;;;;5034863;28;20210;-71
2022/08/14 14:23:30;;;;;;;4.77;3.80;;;;;;;;;;5045679;28;20183;-71
2022/08/14 14:25:58;;;;;;;4.43;3.90;;;;;;;;;;5039813;28;20191;-73
2022/08/14 14:28:30;;;;;;;6.47;3.77;;;;;;;;;;5033574;28;20281;-70
2022/08/14 14:30:57;;;;;;;7.23;3.77;;;;;;;;;;5066501;28;20667;-73
2022/08/14 14:33:27;;;;;;;5.40;3.60;;;;;;;;;;5065319;28;20286;-74
2022/08/14 14:36:16;;;;;;;5.83;3.80;;;;;;;;;;5019769;28;20287;-74
2022/08/14 14:38:51;;;;;;;5.93;3.87;;;;;;;;;;5034121;28;20199;-73
2022/08/14 14:41:19;;;;;;;4.17;3.50;;;;;;;;;;5025558;28;20238;-71
2022/08/14 14:43:48;;;;;;;10.33;3.73;;;;;;;;;;5066153;28;20601;-70
2022/08/14 14:46:17;;;;;;;6.90;3.73;;;;;;;;;;5050911;28;20198;-70
2022/08/14 14:48:44;;;;;;;5.93;3.83;;;;;;;;;;5050930;28;20609;-73
2022/08/14 14:51:20;;;;;;;11.10;4.20;;;;;;;;;;5050051;28;20268;-74
2022/08/14 14:53:47;;;;;;;9.13;4.13;;;;;;;;;;5050928;28;20191;-74
2022/08/14 14:56:15;;;;;;;5.87;3.47;;;;;;;;;;5051068;28;20187;-73
2022/08/14 14:59:01;;;;;;;7.87;3.97;;;;;;;;;;5063433;28;20195;-67
2022/08/14 15:01:30;;;;;;;8.63;3.80;;;;;;;;;;5050513;28;20582;-70
2022/08/14 15:03:58;;;;;;;8.63;3.40;;;;;;;;;;5040012;28;20232;-69
2022/08/14 15:06:32;;;;;;;7.07;3.57;;;;;;;;;;5050007;28;20198;-69
2022/08/14 15:09:00;;;;;;;7.67;3.70;;;;;;;;;;5050521;28;20191;-70
2022/08/14 15:11:30;;;;;;;6.30;3.60;;;;;;;;;;5029917;28;20663;-71
2022/08/14 15:13:57;;;;;;;6.93;4.00;;;;;;;;;;5048342;28;20682;-71
2022/08/14 15:16:41;;;;;;;13.07;4.23;;;;;;;;;;5037373;28;20281;-71
2022/08/14 15:19:10;;;;;;;4.53;4.03;;;;;;;;;;5050210;28;20252;-72
2022/08/14 15:21:40;;;;;;;5.97;4.20;;;;;;;;;;5033376;28;20249;-71
2022/08/14 15:24:07;;;;;;;6.73;4.67;;;;;;;;;;5049173;28;20217;-72
2022/08/14 15:26:34;;;;;;;8.77;5.50;;;;;;;;;;5049434;28;20195;-72
2022/08/14 15:29:19;;;;;;;9.30;5.07;;;;;;;;;;5041299;28;20573;-71
2022/08/14 15:31:46;;;;;;;6.50;5.40;;;;;;;;;;5050175;28;20181;-71
2022/08/14 15:34:17;;;;;;;10.13;6.50;;;;;;;;;;5041369;28;20218;-71
2022/08/14 15:37:04;;;;;;;10.73;6.00;;;;;;;;;;5049950;28;20191;-72
2022/08/14 15:39:32;;;;;;;11.03;6.70;;;;;;;;;;5049412;28;20670;-72
2022/08/14 15:42:03;;;;;;;13.47;7.63;;;;;;;;;;5045519;28;20252;-72
2022/08/14 15:56:21;;;;;;;13.70;8.67;;;;;;;;;;5039061;28;20248;-68
2022/08/14 15:59:09;;;;;;;12.83;9.73;;;;;;;;;;5047808;28;20215;-70
2022/08/14 16:01:42;;;;;;;17.30;10.10;;;;;;;;;;5040922;28;20233;-70
2022/08/14 16:04:21;;;;;;;15.77;10.60;;;;;;;;;;5051448;28;20197;-70
2022/08/14 16:06:50;;;;;;;14.80;11.17;;;;;;;;;;5052390;28;20186;-69
2022/08/14 16:09:35;;;;;;;15.73;12.93;;;;;;;;;;5069507;28;20186;-71
2022/08/14 16:12:02;;;;;;;18.83;12.07;;;;;;;;;;5063686;28;20194;-70
2022/08/14 16:14:46;;;;;;;16.40;12.07;;;;;;;;;;5068444;28;20174;-70
2022/08/14 16:17:13;;;;;;;14.87;11.53;;;;;;;;;;5069498;28;20240;-70
2022/08/14 16:19:46;;;;;;;16.50;12.80;;;;;;;;;;5041928;28;20199;-68
2022/08/14 16:22:13;;;;;;;14.17;11.80;;;;;;;;;;5060945;28;20689;-69
2022/08/14 16:25:00;;;;;;;15.83;11.23;;;;;;;;;;5062355;28;20190;-68
2022/08/14 16:27:30;;;;;;;14.57;11.07;;;;;;;;;;5052022;28;20197;-68
2022/08/14 16:30:11;;;;;;;15.00;10.80;;;;;;;;;;5061931;28;20859;-71
2022/08/14 16:32:53;;;;;;;17.10;10.53;;;;;;;;;;5062146;28;20194;-68
2022/08/14 16:35:25;;;;;;;15.70;9.57;;;;;;;;;;5044093;28;20896;-73
2022/08/14 16:38:15;;;;;;;17.77;9.27;;;;;;;;;;5061477;28;20626;-66
2022/08/14 16:44:10;;;;;;;13.40;8.93;;;;;;;;;;5062123;28;20843;-66
2022/08/14 16:46:48;;;;;;;11.17;8.33;;;;;;;;;;5061878;28;20185;-67
2022/08/14 16:49:20;;;;;;;11.80;8.40;;;;;;;;;;5061938;28;20204;-66
2022/08/14 16:51:49;;;;;;;14.80;8.00;;;;;;;;;;5060211;28;20243;-67
2022/08/14 16:54:18;;;;;;;10.93;7.67;;;;;;;;;;5059704;28;20196;-68
2022/08/14 16:57:31;;;;;;;11.10;8.07;;;;;;;;;;5062148;28;20202;-67
2022/08/14 16:59:58;;;;;;;10.77;8.03;;;;;;;;;;5050431;28;20216;-68
2022/08/14 17:02:35;;;;;;;9.77;8.00;;;;;;;;;;5040494;28;20245;-69
2022/08/14 17:05:19;;;;;;;12.60;6.10;;;;;;;;;;5041316;28;20182;-69
2022/08/14 17:08:05;;;;;;;15.30;4.40;;;;;;;;;;5041178;28;20198;-68
2022/08/14 17:10:55;;;;;;;12.63;3.50;;;;;;;;;;5042623;28;20263;-68
2022/08/14 17:13:26;;;;;;;7.20;3.03;;;;;;;;;;5041620;28;20945;-68
2022/08/14 17:16:17;;;;;;;12.00;3.63;;;;;;;;;;5039669;28;20203;-67
2022/08/14 17:18:53;;;;;;;11.97;4.10;;;;;;;;;;5039167;28;20657;-71
2022/08/14 17:24:36;;;;;;;9.90;5.07;;;;;;;;;;5041211;28;20205;-70
2022/08/14 17:27:23;;;;;;;8.53;6.20;;;;;;;;;;5040408;28;20194;-69
2022/08/14 17:29:52;;;;;;;12.90;6.70;;;;;;;;;;5039463;28;20207;-73
2022/08/14 17:32:39;;;;;;;9.60;5.87;;;;;;;;;;5040976;28;20186;-70
2022/08/14 17:35:26;;;;;;;9.63;5.60;;;;;;;;;;5025161;28;20195;-69
2022/08/14 17:38:17;;;;;;;9.27;5.37;;;;;;;;;;5040561;28;20221;-69
2022/08/14 17:41:22;;;;;;;6.97;5.00;;;;;;;;;;5040961;28;20218;-70
2022/08/14 17:44:09;;;;;;;9.90;5.17;;;;;;;;;;5043398;28;21025;-71
2022/08/14 17:46:36;;;;;;;7.63;5.77;;;;;;;;;;5035852;28;20182;-70
2022/08/14 17:49:10;;;;;;;7.90;6.03;;;;;;;;;;5047794;28;20286;-71
2022/08/14 17:52:02;;;;;;;11.33;6.60;;;;;;;;;;5048418;28;20227;-71
2022/08/14 17:54:48;;;;;;;8.17;6.00;;;;;;;;;;5048748;28;20178;-71
2022/08/14 17:57:28;;;;;;;10.47;6.23;;;;;;;;;;5047607;28;20626;-71
2022/08/14 18:00:01;;;;;;;6.70;5.93;;;;;;;;;;5047566;28;20249;-71
2022/08/14 18:02:30;;;;;;;7.33;5.97;;;;;;;;;;5050479;28;20234;-71
2022/08/14 18:04:58;;;;;;;8.30;6.67;;;;;;;;;;5050773;28;20600;-70
2022/08/14 18:07:28;;;;;;;11.30;6.27;;;;;;;;;;5048533;28;20193;-70
2022/08/14 18:10:17;;;;;;;6.97;5.80;;;;;;;;;;5068156;28;20196;-70
2022/08/14 18:13:06;;;;;;;7.33;5.87;;;;;;;;;;5036708;28;20650;-72
2022/08/14 18:15:37;;;;;;;7.43;5.93;;;;;;;;;;5069486;28;20684;-71
2022/08/14 18:18:07;;;;;;;7.10;6.00;;;;;;;;;;5054446;28;20269;-71
2022/08/14 18:20:37;;;;;;;8.77;5.80;;;;;;;;;;5054397;28;21127;-70
2022/08/14 18:23:25;;;;;;;8.03;6.23;;;;;;;;;;5071635;28;20190;-71
2022/08/14 18:25:56;;;;;;;7.70;6.50;;;;;;;;;;5046461;28;20198;-72
2022/08/14 18:28:26;;;;;;;10.40;7.47;;;;;;;;;;5053752;28;20230;-71
2022/08/14 18:31:19;;;;;;;8.43;6.33;;;;;;;;;;5057043;28;20190;-71
2022/08/14 18:33:55;;;;;;;9.20;5.80;;;;;;;;;;5071467;28;20200;-72
2022/08/14 18:36:41;;;;;;;9.43;6.20;;;;;;;;;;5037811;28;20654;-72
2022/08/14 18:39:28;;;;;;;7.80;6.83;;;;;;;;;;5071865;28;20193;-75
2022/08/14 18:41:57;;;;;;;9.33;6.30;;;;;;;;;;5053964;28;20221;-72
2022/08/14 18:44:43;;;;;;;6.53;5.90;;;;;;;;;;5041493;28;20270;-72
2022/08/14 18:47:09;;;;;;;10.43;6.57;;;;;;;;;;5071573;28;20194;-71
2022/08/14 18:49:59;;;;;;;7.60;6.50;;;;;;;;;;5071465;28;20193;-74
2022/08/14 18:52:29;;;;;;;9.27;6.50;;;;;;;;;;5066023;28;20657;-74
2022/08/14 18:55:24;;;;;;;10.87;7.13;;;;;;;;;;5059363;28;20197;-78